Time;durP1;ratioP1;P1;durP2;ratioP2;P2;SDS_P1;SDS_P2;PMS_P1;PMS_P2;Temp;Humidity;BMP_temperature;BMP_pressure;BME280_temperature;BME280_humidity;BME280_pressure;Samples;Min_cycle;Max_cycle;Signal;HPM_P1;HPM_P2
2023/04/14 00:00:50;;;;;;;7.65;4.85;;;;;;;11.30;68.14;99268.69;5106465;28;20031;-41
2023/04/14 00:03:16;;;;;;;15.90;7.95;;;;;;;11.05;68.71;99262.72;5106625;28;20022;-40
2023/04/14 00:05:42;;;;;;;10.38;6.50;;;;;;;11.37;67.81;99258.66;5105913;28;20050;-39
2023/04/14 00:08:07;;;;;;;11.27;6.40;;;;;;;11.39;67.03;99259.22;5105759;28;20447;-40
2023/04/14 00:10:33;;;;;;;23.40;11.20;;;;;;;10.79;70.41;99253.47;5106178;28;20138;-41
2023/04/14 00:13:00;;;;;;;41.95;22.05;;;;;;;10.74;70.59;99250.69;5104960;28;20016;-38
2023/04/14 00:15:25;;;;;;;23.35;14.02;;;;;;;10.95;69.76;99256.38;5106283;27;20065;-40
2023/04/14 00:17:51;;;;;;;11.45;6.18;;;;;;;11.19;67.15;99252.50;5106017;28;20391;-38
2023/04/14 00:20:17;;;;;;;7.93;5.25;;;;;;;11.13;67.36;99255.34;5106239;28;20553;-39
2023/04/14 00:22:42;;;;;;;13.98;10.07;;;;;;;11.09;67.29;99251.53;5105902;28;20016;-40
2023/04/14 00:25:08;;;;;;;8.68;5.20;;;;;;;11.06;67.99;99264.31;5104888;28;20020;-40
2023/04/14 00:27:33;;;;;;;7.22;5.32;;;;;;;10.98;68.18;99277.25;5106065;28;20547;-40
2023/04/14 00:29:59;;;;;;;11.30;8.48;;;;;;;11.21;67.64;99279.75;5106213;28;20043;-38
2023/04/14 00:32:24;;;;;;;11.98;8.10;;;;;;;10.73;69.62;99283.75;5106219;28;20467;-41
2023/04/14 00:34:50;;;;;;;13.85;7.25;;;;;;;10.58;70.86;99288.78;5104594;28;20129;-42
2023/04/14 00:37:15;;;;;;;10.82;7.20;;;;;;;10.51;70.55;99293.47;5106192;28;20467;-40
2023/04/14 00:39:41;;;;;;;8.32;6.15;;;;;;;10.51;70.84;99280.94;5105917;28;20147;-40
2023/04/14 00:42:06;;;;;;;8.95;6.18;;;;;;;10.67;69.99;99268.72;5106373;28;21580;-40
2023/04/14 00:44:31;;;;;;;11.55;6.43;;;;;;;10.84;68.82;99288.19;5105913;28;20046;-41
2023/04/14 00:46:59;;;;;;;7.65;5.53;;;;;;;10.75;69.51;99283.53;5106058;28;20403;-40
2023/04/14 00:49:25;;;;;;;9.82;5.40;;;;;;;10.84;68.53;99282.88;5105606;28;20447;-40
2023/04/14 00:51:51;;;;;;;11.35;5.53;;;;;;;10.88;68.61;99290.41;5106227;28;20448;-40
2023/04/14 00:54:19;;;;;;;10.85;5.30;;;;;;;10.37;70.53;99277.72;5105881;28;20046;-40
2023/04/14 00:56:46;;;;;;;9.25;5.30;;;;;;;10.13;72.08;99292.13;5105779;28;20588;-40
2023/04/14 00:59:12;;;;;;;8.95;5.68;;;;;;;10.59;70.04;99293.09;5105892;28;20123;-39
2023/04/14 01:01:39;;;;;;;10.05;5.50;;;;;;;10.25;72.33;99291.06;5105257;28;20085;-39
2023/04/14 01:04:05;;;;;;;9.90;5.45;;;;;;;10.40;71.41;99277.28;5106153;28;20042;-40
2023/04/14 01:06:32;;;;;;;10.30;5.95;;;;;;;10.37;71.50;99269.72;5105330;28;20060;-39
2023/04/14 01:08:58;;;;;;;8.57;5.70;;;;;;;10.49;70.61;99274.22;5105717;28;20028;-39
2023/04/14 01:11:46;;;;;;;9.27;5.80;;;;;;;10.42;71.07;99280.50;5105348;28;20067;-38
2023/04/14 01:14:41;;;;;;;11.07;5.55;;;;;;;10.51;70.58;99264.94;5105732;28;20036;-40
2023/04/14 01:17:28;;;;;;;8.55;5.05;;;;;;;10.60;70.44;99260.03;5103661;28;20047;-40
2023/04/14 01:20:09;;;;;;;8.98;5.47;;;;;;;10.55;70.87;99279.41;5107762;28;20091;-39
2023/04/14 01:22:39;;;;;;;10.63;6.05;;;;;;;10.51;70.21;99267.59;5109625;28;20035;-40
2023/04/14 01:25:22;;;;;;;20.98;11.73;;;;;;;9.88;73.92;99274.56;5109124;28;20023;-38
2023/04/14 01:27:48;;;;;;;29.63;15.13;;;;;;;9.80;74.19;99272.25;5109426;28;20039;-38
2023/04/14 01:30:22;;;;;;;18.55;9.40;;;;;;;10.15;72.90;99271.38;5109174;28;20019;-38
2023/04/14 01:32:50;;;;;;;15.20;8.27;;;;;;;10.00;71.62;99262.03;5109363;28;20024;-38
2023/04/14 01:35:51;;;;;;;;;;;;;;;9.88;73.85;99271.91;5109552;28;20488;-38
2023/04/14 01:38:28;;;;;;;11.55;6.00;;;;;;;10.06;73.20;99271.75;5045904;28;19912;-39
2023/04/14 01:41:04;;;;;;;9.70;5.93;;;;;;;10.32;71.17;99269.66;5100587;28;20054;-37
2023/04/14 01:43:31;;;;;;;9.30;5.70;;;;;;;10.32;70.66;99269.66;5109166;28;20188;-39
2023/04/14 01:45:59;;;;;;;10.63;6.00;;;;;;;9.65;74.22;99243.44;5108975;28;20016;-38
2023/04/14 01:48:26;;;;;;;14.68;7.18;;;;;;;9.80;73.48;99250.94;5108996;28;20508;-38
2023/04/14 01:50:54;;;;;;;10.30;5.78;;;;;;;10.26;71.08;99259.91;5108951;28;20039;-39
2023/04/14 01:53:23;;;;;;;12.60;7.07;;;;;;;10.12;71.83;99239.91;5108687;28;20034;-39
2023/04/14 01:55:50;;;;;;;11.52;5.95;;;;;;;9.77;73.15;99240.78;5108551;28;20049;-39
2023/04/14 01:58:17;;;;;;;10.18;5.85;;;;;;;9.90;72.20;99235.19;5108854;28;20476;-37
2023/04/14 02:00:44;;;;;;;10.32;5.07;;;;;;;10.10;71.31;99252.66;5108983;28;20040;-38
2023/04/14 02:03:11;;;;;;;7.93;5.05;;;;;;;10.05;71.72;99256.81;5101561;28;20042;-38
2023/04/14 02:05:38;;;;;;;8.55;5.13;;;;;;;10.04;71.93;99255.19;5103701;28;20035;-39
2023/04/14 02:08:11;;;;;;;9.68;5.22;;;;;;;9.68;73.34;99250.97;5108206;28;20148;-39
2023/04/14 02:10:40;;;;;;;9.15;5.68;;;;;;;9.84;72.86;99257.44;5107835;28;20023;-39
2023/04/14 02:13:07;;;;;;;8.73;5.38;;;;;;;9.76;73.38;99257.78;5108008;28;20111;-39
2023/04/14 02:15:34;;;;;;;10.45;5.32;;;;;;;9.90;72.12;99267.16;5100576;27;20083;-39
2023/04/14 02:18:03;;;;;;;8.95;5.80;;;;;;;9.55;73.04;99249.34;5104468;28;20478;-39
2023/04/14 02:20:28;;;;;;;16.40;10.98;;;;;;;9.81;72.64;99268.56;5107970;28;20858;-38
2023/04/14 02:22:54;;;;;;;15.10;9.65;;;;;;;9.90;72.00;99261.03;5108324;28;20502;-39
2023/04/14 02:25:25;;;;;;;14.52;9.32;;;;;;;9.37;73.19;99262.78;5108011;28;20076;-39
2023/04/14 02:27:57;;;;;;;15.40;8.13;;;;;;;9.38;73.46;99253.75;5108221;28;20039;-38
2023/04/14 02:30:32;;;;;;;10.98;6.72;;;;;;;9.19;75.14;99245.06;5107384;28;20036;-38
2023/04/14 02:33:06;;;;;;;12.20;6.55;;;;;;;9.56;73.32;99248.31;5108362;28;20036;-39
2023/04/14 02:35:47;;;;;;;10.30;6.18;;;;;;;9.75;72.48;99258.84;5107823;28;20039;-39
2023/04/14 02:38:32;;;;;;;15.18;7.13;;;;;;;9.65;72.73;99248.78;5108029;28;20119;-38
2023/04/14 02:41:03;;;;;;;10.10;6.63;;;;;;;9.35;75.18;99263.00;5107985;28;20032;-39
2023/04/14 02:43:32;;;;;;;12.70;6.57;;;;;;;8.96;76.46;99240.50;5107750;28;20062;-39
2023/04/14 02:46:01;;;;;;;14.05;7.18;;;;;;;8.94;77.45;99264.66;5107788;28;20051;-40
2023/04/14 02:48:29;;;;;;;13.45;6.88;;;;;;;8.98;77.75;99257.06;5108059;28;20104;-39
2023/04/14 02:50:57;;;;;;;11.00;7.20;;;;;;;9.16;76.60;99250.84;5107730;28;20122;-39
2023/04/14 02:53:25;;;;;;;12.05;6.90;;;;;;;9.15;76.75;99271.28;5107667;28;20051;-40
2023/04/14 02:55:51;;;;;;;13.00;7.47;;;;;;;9.08;76.95;99270.59;5107404;28;20038;-39
2023/04/14 02:58:17;;;;;;;11.05;7.18;;;;;;;9.06;77.68;99272.69;5107641;27;20031;-40
2023/04/14 03:00:45;;;;;;;11.77;6.50;;;;;;;9.20;76.31;99262.66;5107773;28;20077;-39
2023/04/14 03:03:11;;;;;;;;;;;;;;;9.34;75.81;99279.22;5107916;28;20028;-37
2023/04/14 03:05:40;;;;;;;9.68;5.85;;;;;;;9.46;75.31;99277.38;5107329;28;19914;-40
2023/04/14 03:08:07;;;;;;;11.32;6.13;;;;;;;9.44;75.84;99276.78;5107323;28;20084;-38
2023/04/14 03:10:33;;;;;;;11.60;5.82;;;;;;;9.09;77.27;99287.38;5107459;28;20027;-39
2023/04/14 03:13:01;;;;;;;10.32;5.80;;;;;;;9.30;75.28;99257.56;5107149;28;20024;-40
2023/04/14 03:15:27;;;;;;;11.85;6.05;;;;;;;9.24;76.37;99264.63;5107072;28;20077;-39
2023/04/14 03:17:56;;;;;;;9.77;5.90;;;;;;;9.41;75.17;99263.94;5106931;28;20039;-39
2023/04/14 03:20:22;;;;;;;11.15;6.03;;;;;;;9.34;75.94;99265.91;5107121;28;20027;-39
2023/04/14 03:23:00;;;;;;;9.10;5.18;;;;;;;9.60;74.44;99261.97;5107159;28;20038;-40
2023/04/14 03:25:27;;;;;;;8.05;5.40;;;;;;;9.34;76.33;99268.56;5107322;28;20023;-38
2023/04/14 03:27:58;;;;;;;11.43;6.45;;;;;;;9.24;76.25;99269.94;5106873;28;20027;-39
2023/04/14 03:30:25;;;;;;;9.98;5.72;;;;;;;9.24;75.90;99242.53;5106673;28;20047;-39
2023/04/14 03:32:53;;;;;;;10.20;7.10;;;;;;;9.29;77.44;99273.75;5106872;28;20042;-39
2023/04/14 03:35:21;;;;;;;11.93;7.95;;;;;;;9.62;74.39;99260.72;5106759;28;20031;-39
2023/04/14 03:37:47;;;;;;;;;;;;;;;9.61;73.77;99251.09;5107221;28;20028;-38
2023/04/14 03:40:14;;;;;;;10.85;7.18;;;;;;;9.64;74.22;99247.97;5106885;28;19916;-39
2023/04/14 03:42:43;;;;;;;45.00;35.30;;;;;;;9.41;75.96;99263.94;5106272;28;20024;-39
2023/04/14 03:45:09;;;;;;;12.13;8.07;;;;;;;9.23;77.16;99256.84;5106857;28;20121;-39
2023/04/14 03:47:36;;;;;;;14.73;11.13;;;;;;;9.29;77.01;99263.13;5106554;28;20055;-39
2023/04/14 03:50:04;;;;;;;31.15;23.50;;;;;;;9.36;75.95;99258.50;5106957;28;20032;-40
2023/04/14 03:52:34;;;;;;;20.40;15.77;;;;;;;9.43;76.00;99267.19;5106973;28;20031;-38
2023/04/14 03:55:05;;;;;;;12.40;7.15;;;;;;;9.22;76.75;99265.88;5106134;28;20039;-40
2023/04/14 03:57:31;;;;;;;12.50;6.55;;;;;;;9.33;75.91;99285.56;5106684;28;20031;-39
2023/04/14 03:59:59;;;;;;;14.95;9.35;;;;;;;9.54;74.81;99287.69;5106327;28;20077;-38
2023/04/14 04:02:27;;;;;;;17.73;10.85;;;;;;;9.08;75.96;99291.88;5106381;28;20028;-38
2023/04/14 04:04:54;;;;;;;12.95;9.55;;;;;;;9.29;75.96;99297.69;5106401;28;20084;-40
2023/04/14 04:07:20;;;;;;;13.60;9.27;;;;;;;9.14;75.64;99288.31;5106338;28;20126;-39
2023/04/14 04:09:48;;;;;;;17.45;10.18;;;;;;;9.05;76.92;99298.47;5106085;28;20265;-39
2023/04/14 04:12:17;;;;;;;15.75;10.75;;;;;;;8.72;78.85;99301.59;5106306;28;20030;-40
2023/04/14 04:14:43;;;;;;;11.23;6.85;;;;;;;8.64;81.03;99304.56;5100727;28;20039;-38
2023/04/14 04:17:12;;;;;;;11.65;7.40;;;;;;;8.93;79.28;99310.09;5098328;28;20030;-38
2023/04/14 04:19:41;;;;;;;22.55;11.98;;;;;;;9.31;76.87;99300.94;5098232;28;20034;-39
2023/04/14 04:22:10;;;;;;;18.85;10.23;;;;;;;9.23;77.52;99308.22;5105898;28;20032;-39
2023/04/14 04:24:39;;;;;;;20.58;10.27;;;;;;;9.03;78.17;99315.66;5105771;28;20027;-40
2023/04/14 04:27:05;;;;;;;20.38;11.20;;;;;;;8.83;80.99;99295.50;5105882;28;20504;-40
2023/04/14 04:29:31;;;;;;;64.90;31.17;;;;;;;9.08;78.88;99310.50;5106229;28;20086;-40
2023/04/14 04:31:56;;;;;;;25.48;13.43;;;;;;;9.27;78.25;99315.75;5105953;28;20504;-40
2023/04/14 04:34:24;;;;;;;86.60;37.45;;;;;;;9.03;79.28;99291.75;5105975;28;20034;-40
2023/04/14 04:36:51;;;;;;;12.68;7.43;;;;;;;9.33;78.28;99312.97;5097626;28;20043;-40
2023/04/14 04:39:16;;;;;;;13.23;7.30;;;;;;;9.09;79.12;99313.97;5096561;28;20077;-40
2023/04/14 04:41:42;;;;;;;11.48;6.78;;;;;;;9.09;80.05;99320.09;5105489;28;20051;-40
2023/04/14 04:44:08;;;;;;;11.05;6.80;;;;;;;9.45;78.15;99313.00;5105819;27;20031;-41
2023/04/14 04:46:49;;;;;;;10.82;7.82;;;;;;;9.68;78.20;99316.72;5105992;28;20023;-41
2023/04/14 04:49:14;;;;;;;14.63;9.88;;;;;;;9.71;77.91;99306.41;5105916;27;20424;-42
2023/04/14 04:51:40;;;;;;;13.68;9.30;;;;;;;9.46;80.18;99309.31;5105901;27;20020;-40
2023/04/14 04:54:05;;;;;;;12.52;8.68;;;;;;;9.61;80.63;99314.19;5107128;28;20027;-40
2023/04/14 04:56:31;;;;;;;11.98;8.38;;;;;;;9.96;79.13;99308.84;5110162;27;20427;-40
2023/04/14 04:58:58;;;;;;;24.02;15.50;;;;;;;10.21;78.62;99310.41;5109701;28;20024;-40
2023/04/14 05:01:23;;;;;;;23.27;14.15;;;;;;;10.68;75.70;99315.63;5109876;27;20084;-40
2023/04/14 05:03:49;;;;;;;12.73;6.80;;;;;;;10.71;75.53;99320.50;5108238;28;20031;-39
2023/04/14 05:06:15;;;;;;;9.40;6.28;;;;;;;10.65;76.88;99311.59;5109738;28;20569;-40
2023/04/14 05:08:41;;;;;;;10.52;5.32;;;;;;;10.81;75.85;99310.03;5109752;27;20118;-40
2023/04/14 05:11:06;;;;;;;13.80;8.90;;;;;;;10.97;74.25;99313.78;5109444;28;20076;-40
2023/04/14 05:13:32;;;;;;;11.65;8.95;;;;;;;11.32;73.98;99319.97;5109643;27;20149;-37
2023/04/14 05:16:14;;;;;;;10.88;6.97;;;;;;;11.60;72.27;99322.53;5109515;28;20793;-38
2023/04/14 05:18:40;;;;;;;11.00;6.55;;;;;;;11.80;72.25;99321.25;5109530;28;20032;-39
2023/04/14 05:21:13;;;;;;;13.82;6.50;;;;;;;12.04;70.58;99306.66;5109629;28;20023;-39
2023/04/14 05:23:41;;;;;;;13.30;9.60;;;;;;;12.07;71.84;99305.34;5109623;28;20039;-41
2023/04/14 05:26:06;;;;;;;15.18;8.82;;;;;;;11.99;72.36;99305.78;5109371;28;20088;-37
2023/04/14 05:28:32;;;;;;;19.33;14.45;;;;;;;12.33;72.07;99298.47;5109684;27;20424;-39
2023/04/14 05:30:58;;;;;;;16.25;10.95;;;;;;;12.10;72.66;99288.03;5109047;28;20058;-39
2023/04/14 05:33:23;;;;;;;14.93;8.52;;;;;;;12.53;71.20;99278.38;5109412;28;20024;-40
2023/04/14 05:35:51;;;;;;;13.98;7.93;;;;;;;12.98;69.90;99293.28;5108862;27;20035;-39
2023/04/14 05:38:18;;;;;;;18.88;12.73;;;;;;;12.99;70.09;99294.88;5109397;27;20092;-38
2023/04/14 05:40:45;;;;;;;16.70;11.60;;;;;;;13.03;70.74;99285.28;5108942;28;20058;-39
2023/04/14 05:43:10;;;;;;;12.10;7.05;;;;;;;13.05;71.80;99273.25;5109189;28;20081;-38
2023/04/14 05:45:36;;;;;;;8.40;4.80;;;;;;;13.14;71.97;99273.63;5108819;28;20142;-40
2023/04/14 05:48:01;;;;;;;13.80;6.85;;;;;;;13.35;69.84;99276.50;5109094;28;20471;-38
2023/04/14 05:50:27;;;;;;;12.70;7.93;;;;;;;13.34;69.40;99264.16;5108792;28;20028;-39
2023/04/14 05:52:52;;;;;;;10.40;6.93;;;;;;;13.40;70.33;99253.25;5108670;28;20089;-39
2023/04/14 05:55:18;;;;;;;13.27;6.70;;;;;;;13.43;68.64;99257.28;5108710;28;20172;-38
2023/04/14 05:57:44;;;;;;;10.45;5.03;;;;;;;13.55;67.92;99260.56;5108520;28;20080;-39
2023/04/14 06:00:11;;;;;;;9.65;5.18;;;;;;;13.42;67.89;99250.28;5108286;28;20035;-39
2023/04/14 06:02:37;;;;;;;8.85;5.43;;;;;;;13.33;68.12;99251.84;5108653;28;20024;-38
2023/04/14 06:05:05;;;;;;;11.18;6.40;;;;;;;13.35;69.06;99265.78;5107978;28;20467;-38
2023/04/14 06:07:30;;;;;;;16.30;9.07;;;;;;;13.15;70.86;99264.50;5107920;28;20432;-38
2023/04/14 06:09:56;;;;;;;19.48;8.23;;;;;;;13.30;71.07;99250.50;5108554;28;20085;-40
2023/04/14 06:12:21;;;;;;;11.38;6.45;;;;;;;13.11;71.97;99247.34;5108338;28;20737;-39
2023/04/14 06:14:47;;;;;;;12.00;6.55;;;;;;;13.24;72.25;99244.25;5108225;28;20035;-38
2023/04/14 06:17:12;;;;;;;11.02;7.10;;;;;;;13.13;72.95;99242.53;5108265;28;20034;-39
2023/04/14 06:19:38;;;;;;;15.82;8.82;;;;;;;13.30;72.70;99230.91;5108372;28;20454;-40
2023/04/14 06:22:04;;;;;;;12.18;7.13;;;;;;;13.34;72.39;99232.00;5108298;28;20020;-39
2023/04/14 06:24:31;;;;;;;17.55;10.60;;;;;;;13.52;72.64;99239.63;5108146;28;20031;-37
2023/04/14 06:26:57;;;;;;;16.40;8.27;;;;;;;13.59;71.23;99228.72;5108220;28;20032;-40
2023/04/14 06:29:23;;;;;;;18.23;9.70;;;;;;;13.70;71.22;99234.94;5107881;28;20504;-40
2023/04/14 06:31:50;;;;;;;23.58;10.77;;;;;;;13.83;69.59;99229.91;5108033;28;20016;-40
2023/04/14 06:34:16;;;;;;;63.75;26.60;;;;;;;13.82;69.97;99228.28;5108310;28;20032;-40
2023/04/14 06:36:41;;;;;;;63.42;27.40;;;;;;;14.14;68.85;99224.69;5106667;28;20035;-39
2023/04/14 06:39:07;;;;;;;20.10;11.10;;;;;;;14.46;66.80;99224.50;5089468;28;20427;-38
2023/04/14 06:41:32;;;;;;;40.58;19.88;;;;;;;14.51;67.49;99217.56;5086965;28;20055;-40
2023/04/14 06:43:58;;;;;;;19.33;10.43;;;;;;;14.60;67.72;99232.06;5087499;28;20028;-39
2023/04/14 06:46:23;;;;;;;39.08;17.30;;;;;;;14.77;68.67;99224.59;5087260;28;20031;-39
2023/04/14 06:48:49;;;;;;;16.35;8.40;;;;;;;14.67;68.14;99227.25;5087145;28;20034;-38
2023/04/14 06:51:14;;;;;;;15.95;8.10;;;;;;;14.56;68.70;99214.88;5087225;28;20028;-39
2023/04/14 06:53:40;;;;;;;13.32;7.10;;;;;;;14.49;69.16;99219.69;5087103;28;20031;-38
2023/04/14 06:56:06;;;;;;;58.28;23.73;;;;;;;14.66;70.36;99221.06;5087391;28;20470;-39
2023/04/14 06:58:32;;;;;;;25.23;12.45;;;;;;;14.77;70.43;99205.81;5105960;28;20068;-40
2023/04/14 07:00:59;;;;;;;22.88;10.52;;;;;;;14.74;70.63;99190.22;5104154;28;20051;-40
2023/04/14 07:03:27;;;;;;;24.60;12.38;;;;;;;14.82;71.75;99194.25;5106579;28;20016;-40
2023/04/14 07:05:53;;;;;;;15.68;9.00;;;;;;;14.98;70.57;99195.88;5106828;28;20024;-39
2023/04/14 07:08:19;;;;;;;39.03;18.55;;;;;;;14.95;71.02;99204.44;5106840;28;20030;-38
2023/04/14 07:10:45;;;;;;;43.42;18.92;;;;;;;15.15;71.31;99205.53;5107066;28;20023;-38
2023/04/14 07:13:11;;;;;;;27.88;12.05;;;;;;;15.31;70.97;99209.00;5106985;28;20494;-39
2023/04/14 07:15:36;;;;;;;77.50;31.20;;;;;;;15.11;72.23;99209.81;5106111;28;20035;-39
2023/04/14 07:18:02;;;;;;;98.88;29.88;;;;;;;15.13;72.46;99210.34;5106707;28;20035;-40
2023/04/14 07:20:28;;;;;;;22.67;11.63;;;;;;;15.29;72.27;99205.78;5106809;28;20609;-39
2023/04/14 07:22:54;;;;;;;28.55;15.30;;;;;;;15.44;72.36;99203.06;5106954;28;20518;-38
2023/04/14 07:25:20;;;;;;;18.60;9.40;;;;;;;15.32;73.75;99191.81;5106899;28;20031;-38
2023/04/14 07:27:46;;;;;;;27.15;15.80;;;;;;;15.64;73.10;99172.66;5106986;28;20075;-40
2023/04/14 07:30:11;;;;;;;19.40;10.35;;;;;;;15.97;73.00;99181.94;5106339;28;20069;-40
2023/04/14 07:32:37;;;;;;;14.90;8.65;;;;;;;15.70;73.68;99189.56;5106032;28;20028;-39
2023/04/14 07:35:03;;;;;;;16.63;8.95;;;;;;;15.64;74.08;99186.88;5106285;28;20034;-38
2023/04/14 07:37:29;;;;;;;13.65;9.35;;;;;;;15.86;73.74;99180.41;5105989;28;20111;-39
2023/04/14 07:39:55;;;;;;;11.68;7.28;;;;;;;15.93;72.53;99172.81;5106125;28;20095;-38
2023/04/14 07:42:20;;;;;;;12.25;7.88;;;;;;;15.70;74.80;99170.75;5105912;28;20956;-39
2023/04/14 07:44:46;;;;;;;14.63;8.35;;;;;;;15.86;74.75;99161.56;5105943;28;20077;-38
2023/04/14 07:47:11;;;;;;;15.63;8.38;;;;;;;15.91;74.33;99158.84;5106438;28;20118;-41
2023/04/14 07:49:37;;;;;;;13.80;9.13;;;;;;;15.93;74.69;99162.06;5106451;28;20215;-39
2023/04/14 07:52:02;;;;;;;18.95;9.55;;;;;;;16.02;74.51;99146.97;5106671;28;20066;-40
2023/04/14 07:54:29;;;;;;;12.82;7.65;;;;;;;16.12;74.69;99156.88;5106304;28;20110;-40
2023/04/14 07:56:55;;;;;;;16.42;8.70;;;;;;;16.26;74.54;99146.28;5106107;28;20102;-39
2023/04/14 07:59:21;;;;;;;16.73;9.38;;;;;;;16.35;75.13;99144.63;5106201;28;20020;-40
2023/04/14 08:01:47;;;;;;;12.38;7.97;;;;;;;16.54;74.51;99139.38;5106142;27;20031;-39
2023/04/14 08:04:12;;;;;;;17.08;8.63;;;;;;;16.60;74.87;99132.06;5106708;28;20034;-40
2023/04/14 08:06:38;;;;;;;13.13;7.85;;;;;;;16.83;74.38;99117.09;5106168;28;20044;-38
2023/04/14 08:09:03;;;;;;;14.88;7.47;;;;;;;16.72;74.29;99107.47;5106118;28;20498;-39
2023/04/14 08:11:29;;;;;;;11.73;6.45;;;;;;;16.75;72.07;99091.53;5105966;28;20088;-40
2023/04/14 08:13:54;;;;;;;13.20;7.05;;;;;;;16.81;72.62;99068.09;5105961;28;20055;-40
2023/04/14 08:16:20;;;;;;;10.40;6.53;;;;;;;17.01;69.17;99085.94;5106447;28;20036;-39
2023/04/14 08:18:45;;;;;;;11.48;6.72;;;;;;;17.22;67.60;99083.84;5106260;28;20809;-39
2023/04/14 08:21:11;;;;;;;9.95;5.70;;;;;;;17.45;65.23;99093.03;5105602;28;20027;-40
2023/04/14 08:23:36;;;;;;;9.45;5.43;;;;;;;17.12;66.36;99092.03;5106047;28;20065;-40
2023/04/14 08:26:03;;;;;;;13.75;7.43;;;;;;;16.88;71.12;99073.97;5105995;28;20078;-38
2023/04/14 08:28:29;;;;;;;35.67;21.08;;;;;;;16.63;74.67;99096.50;5105129;28;20020;-40
2023/04/14 08:30:54;;;;;;;14.50;8.98;;;;;;;15.94;76.75;99096.47;5105777;28;20024;-38
2023/04/14 08:33:20;;;;;;;12.20;7.53;;;;;;;15.45;77.92;99091.84;5105997;28;20540;-40
2023/04/14 08:35:45;;;;;;;13.45;8.85;;;;;;;15.19;77.85;99089.22;5105792;28;20034;-39
2023/04/14 08:38:11;;;;;;;15.05;9.38;;;;;;;15.35;78.69;99102.63;5106047;28;20103;-39
2023/04/14 08:40:41;;;;;;;18.45;9.85;;;;;;;15.62;77.87;99103.03;5105969;28;20081;-39
2023/04/14 08:43:07;;;;;;;18.90;10.82;;;;;;;15.39;77.26;99103.69;5105853;28;20027;-39
2023/04/14 08:45:33;;;;;;;16.30;9.82;;;;;;;15.27;78.50;99102.09;5105659;28;20034;-38
2023/04/14 08:48:01;;;;;;;12.02;8.45;;;;;;;15.37;75.48;99106.63;5105882;28;20030;-39
2023/04/14 08:50:41;;;;;;;12.60;8.63;;;;;;;15.17;77.18;99110.19;5106077;28;20028;-37
2023/04/14 08:53:09;;;;;;;15.27;8.48;;;;;;;15.30;75.59;99099.94;5105798;28;20559;-39
2023/04/14 08:55:39;;;;;;;13.65;8.48;;;;;;;15.21;75.51;99092.44;5105905;28;20027;-38
2023/04/14 08:58:07;;;;;;;13.02;8.45;;;;;;;15.21;74.54;99086.28;5105744;28;20019;-39
2023/04/14 09:00:33;;;;;;;15.63;8.88;;;;;;;15.41;75.77;99106.91;5105711;28;20028;-38
2023/04/14 09:02:59;;;;;;;12.82;7.68;;;;;;;15.67;74.57;99108.41;5105619;28;20035;-37
2023/04/14 09:05:25;;;;;;;18.23;14.77;;;;;;;16.08;71.55;99118.19;5105611;28;20031;-41
2023/04/14 09:07:52;;;;;;;13.40;7.43;;;;;;;16.15;71.79;99126.72;5105610;28;20138;-39
2023/04/14 09:10:19;;;;;;;11.10;7.53;;;;;;;16.20;70.04;99115.94;5104251;28;20027;-38
2023/04/14 09:12:47;;;;;;;12.65;7.50;;;;;;;16.36;69.53;99121.22;5105659;28;20024;-41
2023/04/14 09:15:13;;;;;;;10.15;6.32;;;;;;;16.30;70.94;99130.41;5104443;28;20081;-40
2023/04/14 09:17:38;;;;;;;11.40;6.95;;;;;;;16.34;69.95;99118.78;5105462;28;20439;-41
2023/04/14 09:20:05;;;;;;;12.60;6.97;;;;;;;16.13;70.76;99122.72;5105676;28;20027;-39
2023/04/14 09:22:31;;;;;;;11.68;7.28;;;;;;;16.25;69.22;99125.88;5105167;28;20826;-38
2023/04/14 09:24:57;;;;;;;11.60;7.35;;;;;;;16.35;69.61;99131.19;5105066;28;21008;-38
2023/04/14 09:27:22;;;;;;;11.35;7.00;;;;;;;16.47;66.25;99123.56;5103547;28;20522;-39
2023/04/14 09:29:48;;;;;;;11.85;6.65;;;;;;;16.30;66.80;99112.34;5103604;28;20027;-38
2023/04/14 09:32:14;;;;;;;11.13;7.03;;;;;;;16.48;67.41;99124.34;5104672;28;20023;-38
2023/04/14 09:34:51;;;;;;;11.57;6.97;;;;;;;16.78;65.67;99107.16;5102712;28;20031;-38
2023/04/14 09:37:17;;;;;;;13.35;6.88;;;;;;;17.05;67.15;99113.94;5102959;28;20558;-38
2023/04/14 09:39:49;;;;;;;9.50;6.75;;;;;;;16.82;66.22;99112.81;5104420;28;20027;-38
2023/04/14 09:42:16;;;;;;;10.40;7.47;;;;;;;16.93;65.38;99100.84;5108638;28;20110;-39
2023/04/14 09:44:57;;;;;;;12.55;7.55;;;;;;;16.96;64.00;99096.75;5108525;28;20047;-40
2023/04/14 09:47:23;;;;;;;16.55;7.25;;;;;;;17.03;63.92;99086.47;5108517;28;20023;-38
2023/04/14 09:50:14;;;;;;;14.40;7.68;;;;;;;17.25;63.18;99094.84;5108644;28;20027;-39
2023/04/14 09:52:43;;;;;;;11.00;6.53;;;;;;;17.45;64.05;99093.03;5105562;28;20118;-40
2023/04/14 09:55:14;;;;;;;12.73;6.97;;;;;;;17.78;62.72;99085.06;5108970;27;20038;-40
2023/04/14 09:57:46;;;;;;;10.20;6.80;;;;;;;18.23;60.73;99097.09;5108783;28;20028;-38
2023/04/14 10:00:14;;;;;;;11.82;6.60;;;;;;;18.80;59.66;99091.63;5108963;28;20019;-40
2023/04/14 10:02:57;;;;;;;12.23;7.55;;;;;;;19.38;57.75;99081.38;5108760;28;20031;-39
2023/04/14 10:05:30;;;;;;;19.95;11.95;;;;;;;20.13;56.52;99090.06;5108982;28;20253;-39
2023/04/14 10:08:01;;;;;;;11.85;7.45;;;;;;;20.18;56.49;99079.91;5108629;28;20078;-38
2023/04/14 10:10:26;;;;;;;16.10;8.95;;;;;;;20.53;55.23;99088.28;5108706;28;20024;-39
2023/04/14 10:12:53;;;;;;;12.85;7.47;;;;;;;20.82;53.50;99085.16;5108635;28;20027;-40
2023/04/14 10:15:18;;;;;;;18.48;12.27;;;;;;;20.74;53.96;99083.19;5106799;28;20099;-38
2023/04/14 10:17:44;;;;;;;20.10;16.83;;;;;;;20.98;52.51;99068.47;5108576;28;20028;-38
2023/04/14 10:20:10;;;;;;;12.27;8.35;;;;;;;21.28;50.53;99064.91;5108471;28;20076;-37
2023/04/14 10:22:36;;;;;;;15.98;10.38;;;;;;;20.85;53.99;99067.47;5108278;28;20028;-39
2023/04/14 10:25:03;;;;;;;12.98;6.80;;;;;;;20.90;53.30;99058.41;5108214;28;20024;-38
2023/04/14 10:27:31;;;;;;;14.52;8.38;;;;;;;21.02;54.50;99051.31;5108344;27;20588;-39
2023/04/14 10:29:57;;;;;;;12.23;6.57;;;;;;;21.80;49.99;99064.28;5108406;28;20051;-38
2023/04/14 10:32:25;;;;;;;8.75;5.47;;;;;;;22.21;48.95;99056.75;5108098;28;20567;-40
2023/04/14 10:35:16;;;;;;;11.13;5.70;;;;;;;22.38;47.16;99053.25;5107983;28;20036;-39
2023/04/14 10:37:50;;;;;;;12.05;6.38;;;;;;;22.40;45.89;99048.31;5096113;28;20436;-39
2023/04/14 10:40:15;;;;;;;9.93;5.60;;;;;;;22.54;46.46;99061.72;5087634;28;20027;-38
2023/04/14 10:42:54;;;;;;;13.50;11.30;;;;;;;22.73;46.69;99058.63;5087868;28;20024;-38
2023/04/14 10:45:20;;;;;;;20.98;11.07;;;;;;;23.16;47.11;99057.69;5087429;28;20124;-40
2023/04/14 10:47:46;;;;;;;8.02;4.65;;;;;;;23.46;45.44;99066.66;5087800;28;20175;-39
2023/04/14 10:50:13;;;;;;;19.15;4.47;;;;;;;23.52;42.94;99059.06;5087524;28;20028;-39
2023/04/14 10:52:55;;;;;;;9.60;2.83;;;;;;;23.03;45.30;99049.44;5086562;28;20201;-42
2023/04/14 10:55:22;;;;;;;26.30;4.43;;;;;;;22.60;45.18;99030.53;5087279;28;20063;-42
2023/04/14 10:57:48;;;;;;;10.30;3.08;;;;;;;22.46;45.89;99045.09;5086979;28;20769;-42
2023/04/14 11:00:20;;;;;;;6.80;3.00;;;;;;;22.90;48.21;99060.47;5086841;28;20500;-42
2023/04/14 11:03:02;;;;;;;7.22;3.10;;;;;;;22.46;44.95;99042.38;5086847;28;20032;-41
2023/04/14 11:05:28;;;;;;;9.98;3.15;;;;;;;22.10;45.43;99045.44;5086624;28;20021;-41
2023/04/14 11:07:57;;;;;;;14.07;3.85;;;;;;;21.98;46.66;99047.97;5106327;28;20048;-41
2023/04/14 11:10:23;;;;;;;8.18;3.20;;;;;;;21.91;46.89;99059.31;5106940;28;20027;-39
2023/04/14 11:13:00;;;;;;;9.00;4.28;;;;;;;22.89;48.74;99061.63;5107008;28;20077;-39
2023/04/14 11:15:44;;;;;;;;;;;;;;;23.21;45.23;99071.09;5107078;28;20031;-40
2023/04/14 11:18:26;;;;;;;15.43;4.25;;;;;;;22.23;45.73;99044.50;5107118;28;19919;-41
2023/04/14 11:20:52;;;;;;;12.00;2.80;;;;;;;21.96;46.94;99071.94;5106701;27;20031;-38
2023/04/14 11:23:26;;;;;;;8.43;3.03;;;;;;;21.61;46.99;99014.94;5106985;28;20164;-40
2023/04/14 11:25:52;;;;;;;9.98;3.15;;;;;;;22.12;46.66;99048.63;5106909;28;20023;-39
2023/04/14 11:28:34;;;;;;;5.88;2.45;;;;;;;22.31;45.53;99034.72;5106865;28;20024;-35
2023/04/14 11:31:01;;;;;;;12.43;3.65;;;;;;;22.91;44.94;99040.34;5106891;28;20042;-37
2023/04/14 11:33:32;;;;;;;10.02;3.00;;;;;;;22.71;46.26;99034.47;5106728;28;20054;-35